Austell, GA (30168)

2:42 PM EDT on August 30, 2014 (GMT -0400)
Lithia Springs | Change Station
CLOSE
Current Station
Personal Weather Station
Location: Austell, GA
Elevation: 791 ft
Nearby Weather Stations

Elev 791 ft 33.75 °N, 84.58 °W | Updated 9 seconds ago

Mostly Cloudy
Mostly Cloudy
91.0 °F
Feels Like 98 °F
N
5.0
Wind Variable Wind from SSE
Gusts 5.0 mph

Today
High -- | Low -- °F
--% Chance of Precip.
Yesterday
High -- | Low -- °F
Precip. -- in
7:10 AM 8:06 PM
Waxing Crescent, 23% visible
Pressure 30.10 in
Visibility 10.0 miles
Clouds Few 4000 ft
Scattered Clouds 6000 ft
Mostly Cloudy 10000 ft
Heat Index 98 °F
Dew Point 72 °F
Humidity 53%
Rainfall 0.00 in
Snow Depth Not available.
UV 6 out of 12
Pollen 8.30 out of 12
Air Quality Not available.
Flu Activity Not available.
METAR KFTY 301753Z 00000KT 10SM FEW040 SCT060 BKN100 32/22 A3013 RMK AO2 SLP191 T03170217 10317 20206 58013

More Conditions Fewer Conditions

Pressure 30.10 in
Visibility 10.0 miles
Clouds Few 4000 ft
Scattered Clouds 6000 ft
Mostly Cloudy 10000 ft
Heat Index 98 °F
Dew Point 72 °F
Humidity 53%
Rainfall 0.00 in
Snow Depth Not available.
UV 6 out of 12
Pollen 8.30 out of 12
Air Quality Not available.
Flu Activity Not available.
METAR KFTY 301753Z 00000KT 10SM FEW040 SCT060 BKN100 32/22 A3013 RMK AO2 SLP191 T03170217 10317 20206 58013

More Conditions Fewer Conditions

10-Day Weather Forecast

Almanac

Astronomy

Aug. 30, 2014 Rise Set
Actual Time 7:10 AM EDT 8:06 PM EDT
Civil Twilight 6:45 AM EDT 8:31 PM EDT
Nautical Twilight 6:14 AM EDT 9:02 PM EDT
Astronomical Twilight 5:43 AM EDT 9:33 PM EDT
Moon 11:42 AM EDT 10:56 PM EDT
Length of Visible Light 13h 46m
Length of Day
12h 55m
Tomorrow will be 2m 0s shorter.
Waxing Crescent, 23% of the Moon is Illuminated
Today
Waxing Crescent
Sep 2
First Quarter
Sep 8
Full
Sep 15
Last Quarter
Sep 24
New

Today's Extremes

State Highs State Lows

Community

WunderPhotos

Upload Photos

1,748,593 photos uploaded!

WunderBlogs® & News

Nearby

Air Quality

  Air Quality AQ Index Pollutant
Yesterday Good
PM10
Saturday Moderate
PM2.5
Saturday Good
OZONE
Sunday Moderate
OZONE
Sunday Moderate
PM2.5

Snow Depth

Station Depth Elevation
No new snow has been reported.

Earthquake Activity

City Distance Mag. Time & Date
No recent earthquake activity has been reported nearby.
Minimum magnitude displayed is 2.5.

Coastal Water Temperatures

Place Temperature
No Stations Reporting

Nearby Weather Stations